sensor_id;sensor_type;location;lat;lon;timestamp;temperature;humidity
17066;DHT22;23120;52.336;21.182;2022-07-04T00:01:06;23.40;64.70
17066;DHT22;23120;52.336;21.182;2022-07-04T00:03:33;23.40;64.70
17066;DHT22;23120;52.336;21.182;2022-07-04T00:05:59;23.40;64.70
17066;DHT22;23120;52.336;21.182;2022-07-04T00:08:28;23.40;64.70
17066;DHT22;23120;52.336;21.182;2022-07-04T00:10:54;23.40;64.70
17066;DHT22;23120;52.336;21.182;2022-07-04T00:13:21;23.40;64.70
17066;DHT22;23120;52.336;21.182;2022-07-04T00:15:48;23.30;64.60
17066;DHT22;23120;52.336;21.182;2022-07-04T00:18:15;23.30;64.60
17066;DHT22;23120;52.336;21.182;2022-07-04T00:20:41;23.30;64.60
17066;DHT22;23120;52.336;21.182;2022-07-04T00:23:08;23.30;64.60
17066;DHT22;23120;52.336;21.182;2022-07-04T00:25:36;23.30;64.70
17066;DHT22;23120;52.336;21.182;2022-07-04T00:28:03;23.30;64.60
17066;DHT22;23120;52.336;21.182;2022-07-04T00:30:30;23.30;64.60
17066;DHT22;23120;52.336;21.182;2022-07-04T00:32:57;23.30;64.60
17066;DHT22;23120;52.336;21.182;2022-07-04T00:35:24;23.30;64.60
17066;DHT22;23120;52.336;21.182;2022-07-04T00:37:51;23.30;64.60
17066;DHT22;23120;52.336;21.182;2022-07-04T00:40:18;23.30;64.60
17066;DHT22;23120;52.336;21.182;2022-07-04T00:42:46;23.30;64.60
17066;DHT22;23120;52.336;21.182;2022-07-04T00:45:13;23.30;64.60
17066;DHT22;23120;52.336;21.182;2022-07-04T00:47:39;23.30;65.30
17066;DHT22;23120;52.336;21.182;2022-07-04T00:50:07;23.30;64.60
17066;DHT22;23120;52.336;21.182;2022-07-04T00:52:34;23.30;64.60
17066;DHT22;23120;52.336;21.182;2022-07-04T00:55:01;23.30;64.60
17066;DHT22;23120;52.336;21.182;2022-07-04T00:57:27;23.30;64.60
17066;DHT22;23120;52.336;21.182;2022-07-04T00:59:55;23.20;64.50
17066;DHT22;23120;52.336;21.182;2022-07-04T01:02:22;23.20;64.50
17066;DHT22;23120;52.336;21.182;2022-07-04T01:04:49;23.30;64.60
17066;DHT22;23120;52.336;21.182;2022-07-04T01:07:16;23.20;64.50
17066;DHT22;23120;52.336;21.182;2022-07-04T01:09:43;23.20;64.50
17066;DHT22;23120;52.336;21.182;2022-07-04T01:12:10;23.20;64.50
17066;DHT22;23120;52.336;21.182;2022-07-04T01:14:38;23.20;64.50
17066;DHT22;23120;52.336;21.182;2022-07-04T01:17:06;23.20;64.50
17066;DHT22;23120;52.336;21.182;2022-07-04T01:19:33;23.20;64.50
17066;DHT22;23120;52.336;21.182;2022-07-04T01:22:06;23.20;64.50
17066;DHT22;23120;52.336;21.182;2022-07-04T01:24:33;23.20;64.50
17066;DHT22;23120;52.336;21.182;2022-07-04T01:27:00;23.20;64.50
17066;DHT22;23120;52.336;21.182;2022-07-04T01:29:27;23.20;64.50
17066;DHT22;23120;52.336;21.182;2022-07-04T01:31:53;23.20;64.50
17066;DHT22;23120;52.336;21.182;2022-07-04T01:34:20;23.20;64.50
17066;DHT22;23120;52.336;21.182;2022-07-04T01:36:47;23.20;64.40
17066;DHT22;23120;52.336;21.182;2022-07-04T01:39:15;23.20;64.40
17066;DHT22;23120;52.336;21.182;2022-07-04T01:41:42;23.20;64.30
17066;DHT22;23120;52.336;21.182;2022-07-04T01:44:09;23.20;64.20
17066;DHT22;23120;52.336;21.182;2022-07-04T01:46:35;23.20;64.20
17066;DHT22;23120;52.336;21.182;2022-07-04T01:49:02;23.20;64.20
17066;DHT22;23120;52.336;21.182;2022-07-04T01:51:29;23.10;64.20
17066;DHT22;23120;52.336;21.182;2022-07-04T01:53:56;23.10;64.10
17066;DHT22;23120;52.336;21.182;2022-07-04T01:56:24;23.10;64.10
17066;DHT22;23120;52.336;21.182;2022-07-04T01:58:50;23.10;64.00
17066;DHT22;23120;52.336;21.182;2022-07-04T02:01:17;23.10;64.00
17066;DHT22;23120;52.336;21.182;2022-07-04T02:03:55;23.10;64.00
17066;DHT22;23120;52.336;21.182;2022-07-04T02:06:22;23.10;64.00
17066;DHT22;23120;52.336;21.182;2022-07-04T02:08:49;23.10;63.90
17066;DHT22;23120;52.336;21.182;2022-07-04T02:11:35;23.10;63.80
17066;DHT22;23120;52.336;21.182;2022-07-04T02:14:16;23.10;63.80
17066;DHT22;23120;52.336;21.182;2022-07-04T02:16:42;23.10;63.70
17066;DHT22;23120;52.336;21.182;2022-07-04T02:19:09;23.10;63.70
17066;DHT22;23120;52.336;21.182;2022-07-04T02:21:36;23.10;63.60
17066;DHT22;23120;52.336;21.182;2022-07-04T02:24:04;23.10;63.60
17066;DHT22;23120;52.336;21.182;2022-07-04T02:26:31;23.10;63.60
17066;DHT22;23120;52.336;21.182;2022-07-04T02:28:59;23.10;63.50
17066;DHT22;23120;52.336;21.182;2022-07-04T02:31:26;23.10;63.50
17066;DHT22;23120;52.336;21.182;2022-07-04T02:33:53;23.10;63.50
17066;DHT22;23120;52.336;21.182;2022-07-04T02:36:20;23.10;63.50
17066;DHT22;23120;52.336;21.182;2022-07-04T02:38:46;23.10;63.50
17066;DHT22;23120;52.336;21.182;2022-07-04T02:41:13;23.10;63.50
17066;DHT22;23120;52.336;21.182;2022-07-04T02:43:40;23.10;63.40
17066;DHT22;23120;52.336;21.182;2022-07-04T02:46:08;23.10;63.30
17066;DHT22;23120;52.336;21.182;2022-07-04T02:48:35;23.10;63.30
17066;DHT22;23120;52.336;21.182;2022-07-04T02:51:01;23.10;63.30
17066;DHT22;23120;52.336;21.182;2022-07-04T02:53:28;23.00;63.30
17066;DHT22;23120;52.336;21.182;2022-07-04T02:55:55;23.00;63.30
17066;DHT22;23120;52.336;21.182;2022-07-04T02:58:21;23.10;63.40
17066;DHT22;23120;52.336;21.182;2022-07-04T03:00:48;23.00;63.30
17066;DHT22;23120;52.336;21.182;2022-07-04T03:03:16;23.00;63.40
17066;DHT22;23120;52.336;21.182;2022-07-04T03:05:43;23.00;63.40
17066;DHT22;23120;52.336;21.182;2022-07-04T03:08:10;23.00;63.40
17066;DHT22;23120;52.336;21.182;2022-07-04T03:10:36;23.00;63.40
17066;DHT22;23120;52.336;21.182;2022-07-04T03:13:03;23.00;63.40
17066;DHT22;23120;52.336;21.182;2022-07-04T03:15:30;23.00;63.40
17066;DHT22;23120;52.336;21.182;2022-07-04T03:17:57;23.00;63.50
17066;DHT22;23120;52.336;21.182;2022-07-04T03:20:25;23.00;63.50
17066;DHT22;23120;52.336;21.182;2022-07-04T03:22:52;23.00;63.50
17066;DHT22;23120;52.336;21.182;2022-07-04T03:25:21;22.90;63.40
17066;DHT22;23120;52.336;21.182;2022-07-04T03:27:47;22.90;63.40
17066;DHT22;23120;52.336;21.182;2022-07-04T03:30:14;22.90;63.50
17066;DHT22;23120;52.336;21.182;2022-07-04T03:32:41;22.90;63.60
17066;DHT22;23120;52.336;21.182;2022-07-04T03:35:08;22.90;63.60
17066;DHT22;23120;52.336;21.182;2022-07-04T03:37:36;22.90;63.60
17066;DHT22;23120;52.336;21.182;2022-07-04T03:40:04;22.90;63.60
17066;DHT22;23120;52.336;21.182;2022-07-04T03:42:31;22.90;63.70
17066;DHT22;23120;52.336;21.182;2022-07-04T03:44:58;22.90;63.70
17066;DHT22;23120;52.336;21.182;2022-07-04T03:47:25;22.90;63.70
17066;DHT22;23120;52.336;21.182;2022-07-04T03:49:52;22.90;63.80
17066;DHT22;23120;52.336;21.182;2022-07-04T03:52:18;22.90;63.90
17066;DHT22;23120;52.336;21.182;2022-07-04T03:54:46;22.90;64.10
17066;DHT22;23120;52.336;21.182;2022-07-04T03:57:13;22.90;64.10
17066;DHT22;23120;52.336;21.182;2022-07-04T03:59:40;22.90;64.20
17066;DHT22;23120;52.336;21.182;2022-07-04T04:02:07;22.90;64.20
17066;DHT22;23120;52.336;21.182;2022-07-04T04:04:33;22.90;64.20
17066;DHT22;23120;52.336;21.182;2022-07-04T04:07:18;22.90;64.20
17066;DHT22;23120;52.336;21.182;2022-07-04T04:09:46;22.90;64.20
17066;DHT22;23120;52.336;21.182;2022-07-04T04:12:13;22.90;64.20
17066;DHT22;23120;52.336;21.182;2022-07-04T04:14:40;22.90;64.20
17066;DHT22;23120;52.336;21.182;2022-07-04T04:17:07;22.90;64.20
17066;DHT22;23120;52.336;21.182;2022-07-04T04:19:34;22.90;64.50
17066;DHT22;23120;52.336;21.182;2022-07-04T04:22:00;22.90;64.90
17066;DHT22;23120;52.336;21.182;2022-07-04T04:24:27;23.00;65.20
17066;DHT22;23120;52.336;21.182;2022-07-04T04:26:55;23.00;65.30
17066;DHT22;23120;52.336;21.182;2022-07-04T04:29:22;22.90;65.30
17066;DHT22;23120;52.336;21.182;2022-07-04T04:31:49;23.00;65.50
17066;DHT22;23120;52.336;21.182;2022-07-04T04:34:16;23.00;65.60
17066;DHT22;23120;52.336;21.182;2022-07-04T04:36:42;23.00;65.70
17066;DHT22;23120;52.336;21.182;2022-07-04T04:39:09;23.00;65.80
17066;DHT22;23120;52.336;21.182;2022-07-04T04:41:36;23.00;65.80
17066;DHT22;23120;52.336;21.182;2022-07-04T04:44:04;23.00;65.90
17066;DHT22;23120;52.336;21.182;2022-07-04T04:46:31;23.00;66.00
17066;DHT22;23120;52.336;21.182;2022-07-04T04:48:58;23.00;66.00
17066;DHT22;23120;52.336;21.182;2022-07-04T04:51:24;23.00;66.10
17066;DHT22;23120;52.336;21.182;2022-07-04T04:53:51;23.10;66.20
17066;DHT22;23120;52.336;21.182;2022-07-04T04:56:18;23.10;66.30
17066;DHT22;23120;52.336;21.182;2022-07-04T04:58:46;23.10;66.50
17066;DHT22;23120;52.336;21.182;2022-07-04T05:01:14;23.10;66.50
17066;DHT22;23120;52.336;21.182;2022-07-04T05:03:41;23.10;66.50
17066;DHT22;23120;52.336;21.182;2022-07-04T05:06:08;23.10;66.60
17066;DHT22;23120;52.336;21.182;2022-07-04T05:08:36;23.10;66.60
17066;DHT22;23120;52.336;21.182;2022-07-04T05:11:02;23.10;66.60
17066;DHT22;23120;52.336;21.182;2022-07-04T05:13:29;23.10;66.70
17066;DHT22;23120;52.336;21.182;2022-07-04T05:15:56;23.20;66.90
17066;DHT22;23120;52.336;21.182;2022-07-04T05:18:24;23.20;67.00
17066;DHT22;23120;52.336;21.182;2022-07-04T05:20:51;23.20;67.00
17066;DHT22;23120;52.336;21.182;2022-07-04T05:23:18;23.20;67.00
17066;DHT22;23120;52.336;21.182;2022-07-04T05:25:44;23.20;67.40
17066;DHT22;23120;52.336;21.182;2022-07-04T05:28:11;23.20;67.20
17066;DHT22;23120;52.336;21.182;2022-07-04T05:30:38;23.20;67.20
17066;DHT22;23120;52.336;21.182;2022-07-04T05:33:05;23.20;67.40
17066;DHT22;23120;52.336;21.182;2022-07-04T05:35:33;23.30;67.50
17066;DHT22;23120;52.336;21.182;2022-07-04T05:37:59;23.30;67.60
17066;DHT22;23120;52.336;21.182;2022-07-04T05:40:26;23.30;67.70
17066;DHT22;23120;52.336;21.182;2022-07-04T05:42:53;23.30;67.90
17066;DHT22;23120;52.336;21.182;2022-07-04T05:45:20;23.30;67.90
17066;DHT22;23120;52.336;21.182;2022-07-04T05:47:47;23.30;67.90
17066;DHT22;23120;52.336;21.182;2022-07-04T05:50:14;23.30;68.00
17066;DHT22;23120;52.336;21.182;2022-07-04T05:52:42;23.30;68.10
17066;DHT22;23120;52.336;21.182;2022-07-04T05:55:09;23.40;68.30
17066;DHT22;23120;52.336;21.182;2022-07-04T05:57:36;23.40;68.40
17066;DHT22;23120;52.336;21.182;2022-07-04T06:00:04;23.40;68.40
17066;DHT22;23120;52.336;21.182;2022-07-04T06:02:31;23.40;68.50
17066;DHT22;23120;52.336;21.182;2022-07-04T06:04:58;23.50;69.40
17066;DHT22;23120;52.336;21.182;2022-07-04T06:07:25;23.40;68.50
17066;DHT22;23120;52.336;21.182;2022-07-04T06:09:53;23.50;68.70
17066;DHT22;23120;52.336;21.182;2022-07-04T06:12:20;23.40;68.50
17066;DHT22;23120;52.336;21.182;2022-07-04T06:14:47;23.50;68.70
17066;DHT22;23120;52.336;21.182;2022-07-04T06:17:13;23.50;68.70
17066;DHT22;23120;52.336;21.182;2022-07-04T06:19:40;23.50;68.70
17066;DHT22;23120;52.336;21.182;2022-07-04T06:22:07;23.50;68.70
17066;DHT22;23120;52.336;21.182;2022-07-04T06:24:34;23.50;68.70
17066;DHT22;23120;52.336;21.182;2022-07-04T06:27:02;23.50;68.70
17066;DHT22;23120;52.336;21.182;2022-07-04T06:29:29;23.50;68.70
17066;DHT22;23120;52.336;21.182;2022-07-04T06:31:56;23.50;68.60
17066;DHT22;23120;52.336;21.182;2022-07-04T06:34:23;23.50;68.60
17066;DHT22;23120;52.336;21.182;2022-07-04T06:37:07;23.60;68.70
17066;DHT22;23120;52.336;21.182;2022-07-04T06:39:34;23.60;68.50
17066;DHT22;23120;52.336;21.182;2022-07-04T06:42:02;23.60;68.60
17066;DHT22;23120;52.336;21.182;2022-07-04T06:44:29;23.60;68.20
17066;DHT22;23120;52.336;21.182;2022-07-04T06:46:56;23.60;68.20
17066;DHT22;23120;52.336;21.182;2022-07-04T06:49:23;23.60;68.20
17066;DHT22;23120;52.336;21.182;2022-07-04T06:51:49;23.60;68.10
17066;DHT22;23120;52.336;21.182;2022-07-04T06:54:16;23.60;68.10
17066;DHT22;23120;52.336;21.182;2022-07-04T06:56:43;23.60;68.00
17066;DHT22;23120;52.336;21.182;2022-07-04T06:59:11;23.60;67.90
17066;DHT22;23120;52.336;21.182;2022-07-04T07:01:38;23.60;67.90
17066;DHT22;23120;52.336;21.182;2022-07-04T07:04:04;23.60;67.80
17066;DHT22;23120;52.336;21.182;2022-07-04T07:06:31;23.60;67.80
17066;DHT22;23120;52.336;21.182;2022-07-04T07:08:58;23.60;67.60
17066;DHT22;23120;52.336;21.182;2022-07-04T07:11:25;23.70;67.70
17066;DHT22;23120;52.336;21.182;2022-07-04T07:13:51;23.70;67.70
17066;DHT22;23120;52.336;21.182;2022-07-04T07:16:20;23.70;67.60
17066;DHT22;23120;52.336;21.182;2022-07-04T07:18:48;23.70;67.70
17066;DHT22;23120;52.336;21.182;2022-07-04T07:21:15;23.70;67.50
17066;DHT22;23120;52.336;21.182;2022-07-04T07:23:43;23.70;67.40
17066;DHT22;23120;52.336;21.182;2022-07-04T07:26:11;23.70;67.30
17066;DHT22;23120;52.336;21.182;2022-07-04T07:28:38;23.70;67.10
17066;DHT22;23120;52.336;21.182;2022-07-04T07:31:05;23.70;67.10
17066;DHT22;23120;52.336;21.182;2022-07-04T07:33:33;23.70;67.20
17066;DHT22;23120;52.336;21.182;2022-07-04T07:36:00;23.70;67.10
17066;DHT22;23120;52.336;21.182;2022-07-04T07:38:27;23.70;66.80
17066;DHT22;23120;52.336;21.182;2022-07-04T07:40:54;23.80;66.80
17066;DHT22;23120;52.336;21.182;2022-07-04T07:43:21;23.80;66.60
17066;DHT22;23120;52.336;21.182;2022-07-04T07:45:48;23.80;66.60
17066;DHT22;23120;52.336;21.182;2022-07-04T07:48:14;23.80;66.70
17066;DHT22;23120;52.336;21.182;2022-07-04T07:50:42;23.80;66.60
17066;DHT22;23120;52.336;21.182;2022-07-04T07:53:09;23.80;66.70
17066;DHT22;23120;52.336;21.182;2022-07-04T07:55:36;23.80;66.60
17066;DHT22;23120;52.336;21.182;2022-07-04T07:58:03;23.80;66.50
17066;DHT22;23120;52.336;21.182;2022-07-04T08:00:30;23.80;66.50
17066;DHT22;23120;52.336;21.182;2022-07-04T08:02:57;23.80;66.60
17066;DHT22;23120;52.336;21.182;2022-07-04T08:05:37;23.80;66.50
17066;DHT22;23120;52.336;21.182;2022-07-04T08:08:06;23.80;66.40
17066;DHT22;23120;52.336;21.182;2022-07-04T08:10:36;23.80;66.90
17066;DHT22;23120;52.336;21.182;2022-07-04T08:13:02;23.80;66.10
17066;DHT22;23120;52.336;21.182;2022-07-04T08:15:29;23.80;66.10
17066;DHT22;23120;52.336;21.182;2022-07-04T08:17:56;23.80;65.60
17066;DHT22;23120;52.336;21.182;2022-07-04T08:20:23;23.80;66.10
17066;DHT22;23120;52.336;21.182;2022-07-04T08:22:50;23.80;65.80
17066;DHT22;23120;52.336;21.182;2022-07-04T08:25:19;23.80;65.20
17066;DHT22;23120;52.336;21.182;2022-07-04T08:27:45;23.90;65.80
17066;DHT22;23120;52.336;21.182;2022-07-04T08:30:12;23.90;65.30
17066;DHT22;23120;52.336;21.182;2022-07-04T08:32:40;23.90;65.80
17066;DHT22;23120;52.336;21.182;2022-07-04T08:35:08;23.90;66.00
17066;DHT22;23120;52.336;21.182;2022-07-04T08:37:35;23.90;65.40
17066;DHT22;23120;52.336;21.182;2022-07-04T08:40:03;23.80;65.10
17066;DHT22;23120;52.336;21.182;2022-07-04T08:42:37;23.90;65.20
17066;DHT22;23120;52.336;21.182;2022-07-04T08:45:05;23.90;65.20
17066;DHT22;23120;52.336;21.182;2022-07-04T08:47:33;23.90;65.20
17066;DHT22;23120;52.336;21.182;2022-07-04T08:50:08;23.90;65.20
17066;DHT22;23120;52.336;21.182;2022-07-04T08:52:38;23.90;65.30
17066;DHT22;23120;52.336;21.182;2022-07-04T08:55:06;23.90;65.20
17066;DHT22;23120;52.336;21.182;2022-07-04T08:57:53;23.90;65.20
17066;DHT22;23120;52.336;21.182;2022-07-04T09:00:38;23.90;65.20
17066;DHT22;23120;52.336;21.182;2022-07-04T09:03:06;24.00;65.30
17066;DHT22;23120;52.336;21.182;2022-07-04T09:05:33;24.00;65.30
17066;DHT22;23120;52.336;21.182;2022-07-04T09:08:01;24.00;65.30
17066;DHT22;23120;52.336;21.182;2022-07-04T09:10:28;24.00;65.30
17066;DHT22;23120;52.336;21.182;2022-07-04T09:12:57;24.00;65.40
17066;DHT22;23120;52.336;21.182;2022-07-04T09:15:25;24.00;65.30
17066;DHT22;23120;52.336;21.182;2022-07-04T09:17:52;24.00;65.30
17066;DHT22;23120;52.336;21.182;2022-07-04T09:20:21;24.00;65.30
17066;DHT22;23120;52.336;21.182;2022-07-04T09:22:49;24.00;65.30
17066;DHT22;23120;52.336;21.182;2022-07-04T09:25:17;24.00;65.30
17066;DHT22;23120;52.336;21.182;2022-07-04T09:27:46;24.00;65.20
17066;DHT22;23120;52.336;21.182;2022-07-04T09:30:16;24.00;65.10
17066;DHT22;23120;52.336;21.182;2022-07-04T09:32:44;24.00;64.90
17066;DHT22;23120;52.336;21.182;2022-07-04T09:35:13;24.00;64.80
17066;DHT22;23120;52.336;21.182;2022-07-04T09:37:41;24.00;64.80
17066;DHT22;23120;52.336;21.182;2022-07-04T09:40:21;24.10;64.90
17066;DHT22;23120;52.336;21.182;2022-07-04T09:42:48;24.10;64.50
17066;DHT22;23120;52.336;21.182;2022-07-04T09:45:16;24.10;64.20
17066;DHT22;23120;52.336;21.182;2022-07-04T09:47:45;24.10;64.40
17066;DHT22;23120;52.336;21.182;2022-07-04T09:50:14;24.10;64.30
17066;DHT22;23120;52.336;21.182;2022-07-04T09:52:45;24.10;64.20
17066;DHT22;23120;52.336;21.182;2022-07-04T09:55:14;24.10;64.00
17066;DHT22;23120;52.336;21.182;2022-07-04T09:57:46;24.10;63.90
17066;DHT22;23120;52.336;21.182;2022-07-04T10:00:19;24.10;63.80
17066;DHT22;23120;52.336;21.182;2022-07-04T10:02:47;24.10;63.60
17066;DHT22;23120;52.336;21.182;2022-07-04T10:05:19;24.20;63.70
17066;DHT22;23120;52.336;21.182;2022-07-04T10:07:47;24.20;63.70
17066;DHT22;23120;52.336;21.182;2022-07-04T10:10:28;24.20;63.50
17066;DHT22;23120;52.336;21.182;2022-07-04T10:12:57;24.20;63.40
17066;DHT22;23120;52.336;21.182;2022-07-04T10:15:26;24.20;63.80
17066;DHT22;23120;52.336;21.182;2022-07-04T10:17:52;24.20;63.50
17066;DHT22;23120;52.336;21.182;2022-07-04T10:20:19;24.20;63.30
17066;DHT22;23120;52.336;21.182;2022-07-04T10:22:47;24.20;63.30
17066;DHT22;23120;52.336;21.182;2022-07-04T10:25:14;24.20;63.20
17066;DHT22;23120;52.336;21.182;2022-07-04T10:27:41;24.30;63.30
17066;DHT22;23120;52.336;21.182;2022-07-04T10:30:11;24.30;63.30
17066;DHT22;23120;52.336;21.182;2022-07-04T10:32:40;24.30;63.30
17066;DHT22;23120;52.336;21.182;2022-07-04T10:35:12;24.30;63.30
17066;DHT22;23120;52.336;21.182;2022-07-04T10:38:07;24.30;62.90
17066;DHT22;23120;52.336;21.182;2022-07-04T10:40:41;24.30;63.10
17066;DHT22;23120;52.336;21.182;2022-07-04T10:46:37;24.30;63.00
17066;DHT22;23120;52.336;21.182;2022-07-04T10:49:18;24.30;62.80
17066;DHT22;23120;52.336;21.182;2022-07-04T10:51:46;24.30;62.60
17066;DHT22;23120;52.336;21.182;2022-07-04T10:54:15;24.30;62.70
17066;DHT22;23120;52.336;21.182;2022-07-04T10:56:52;24.30;62.80
17066;DHT22;23120;52.336;21.182;2022-07-04T10:59:22;24.30;62.70
17066;DHT22;23120;52.336;21.182;2022-07-04T11:02:26;24.30;62.90
17066;DHT22;23120;52.336;21.182;2022-07-04T11:04:58;24.30;62.90
17066;DHT22;23120;52.336;21.182;2022-07-04T11:07:59;24.30;62.70
17066;DHT22;23120;52.336;21.182;2022-07-04T11:10:30;24.30;62.70
17066;DHT22;23120;52.336;21.182;2022-07-04T11:13:15;24.30;62.40
17066;DHT22;23120;52.336;21.182;2022-07-04T11:16:02;24.30;62.30
17066;DHT22;23120;52.336;21.182;2022-07-04T11:18:29;24.30;62.30
17066;DHT22;23120;52.336;21.182;2022-07-04T11:20:58;24.30;62.30
17066;DHT22;23120;52.336;21.182;2022-07-04T11:23:25;24.40;62.20
17066;DHT22;23120;52.336;21.182;2022-07-04T11:25:52;24.40;62.00
17066;DHT22;23120;52.336;21.182;2022-07-04T11:28:23;24.40;62.10
17066;DHT22;23120;52.336;21.182;2022-07-04T11:30:50;24.40;61.80
17066;DHT22;23120;52.336;21.182;2022-07-04T11:33:18;24.40;61.70
17066;DHT22;23120;52.336;21.182;2022-07-04T11:38:52;24.40;61.40
17066;DHT22;23120;52.336;21.182;2022-07-04T11:41:21;24.40;61.00
17066;DHT22;23120;52.336;21.182;2022-07-04T11:44:08;24.40;61.00
17066;DHT22;23120;52.336;21.182;2022-07-04T11:47:05;24.40;61.30
17066;DHT22;23120;52.336;21.182;2022-07-04T11:49:32;24.40;61.40
17066;DHT22;23120;52.336;21.182;2022-07-04T11:51:59;24.40;61.00
17066;DHT22;23120;52.336;21.182;2022-07-04T11:54:27;24.40;61.00
17066;DHT22;23120;52.336;21.182;2022-07-04T11:57:08;24.40;61.00
17066;DHT22;23120;52.336;21.182;2022-07-04T11:59:35;24.40;61.30
17066;DHT22;23120;52.336;21.182;2022-07-04T12:02:10;24.40;61.40
17066;DHT22;23120;52.336;21.182;2022-07-04T12:04:37;24.40;61.60
17066;DHT22;23120;52.336;21.182;2022-07-04T12:07:09;24.40;61.60
17066;DHT22;23120;52.336;21.182;2022-07-04T12:09:38;24.40;61.50
17066;DHT22;23120;52.336;21.182;2022-07-04T12:12:06;24.40;61.50
17066;DHT22;23120;52.336;21.182;2022-07-04T12:14:33;24.40;61.70
17066;DHT22;23120;52.336;21.182;2022-07-04T12:17:11;24.40;61.80
17066;DHT22;23120;52.336;21.182;2022-07-04T12:19:37;24.40;61.70
17066;DHT22;23120;52.336;21.182;2022-07-04T12:22:04;24.40;61.80
17066;DHT22;23120;52.336;21.182;2022-07-04T12:24:42;24.40;61.80
17066;DHT22;23120;52.336;21.182;2022-07-04T12:27:17;24.40;61.40
17066;DHT22;23120;52.336;21.182;2022-07-04T12:29:48;24.40;62.40
17066;DHT22;23120;52.336;21.182;2022-07-04T12:32:15;24.40;61.80
17066;DHT22;23120;52.336;21.182;2022-07-04T12:34:42;24.40;61.80
17066;DHT22;23120;52.336;21.182;2022-07-04T12:37:10;24.40;61.80
17066;DHT22;23120;52.336;21.182;2022-07-04T12:39:39;24.40;61.80
17066;DHT22;23120;52.336;21.182;2022-07-04T12:42:09;24.40;61.80
17066;DHT22;23120;52.336;21.182;2022-07-04T12:44:38;24.40;61.40
17066;DHT22;23120;52.336;21.182;2022-07-04T12:47:05;24.40;61.70
17066;DHT22;23120;52.336;21.182;2022-07-04T12:49:33;24.40;61.40
17066;DHT22;23120;52.336;21.182;2022-07-04T12:52:06;24.40;61.40
17066;DHT22;23120;52.336;21.182;2022-07-04T12:54:33;24.40;61.60
17066;DHT22;23120;52.336;21.182;2022-07-04T12:57:09;24.40;61.70
17066;DHT22;23120;52.336;21.182;2022-07-04T12:59:36;24.40;61.80
17066;DHT22;23120;52.336;21.182;2022-07-04T13:02:03;24.40;61.40
17066;DHT22;23120;52.336;21.182;2022-07-04T13:04:31;24.40;61.80
17066;DHT22;23120;52.336;21.182;2022-07-04T13:06:59;24.40;61.50
17066;DHT22;23120;52.336;21.182;2022-07-04T13:09:26;24.40;61.40
17066;DHT22;23120;52.336;21.182;2022-07-04T13:11:54;24.40;61.50
17066;DHT22;23120;52.336;21.182;2022-07-04T13:14:40;24.40;61.60
17066;DHT22;23120;52.336;21.182;2022-07-04T13:17:06;24.40;61.70
17066;DHT22;23120;52.336;21.182;2022-07-04T13:19:33;24.40;61.40
17066;DHT22;23120;52.336;21.182;2022-07-04T13:22:00;24.40;61.50
17066;DHT22;23120;52.336;21.182;2022-07-04T13:24:27;24.40;61.30
17066;DHT22;23120;52.336;21.182;2022-07-04T13:26:53;24.40;61.10
17066;DHT22;23120;52.336;21.182;2022-07-04T13:29:20;24.50;61.20
17066;DHT22;23120;52.336;21.182;2022-07-04T13:31:49;24.50;61.20
17066;DHT22;23120;52.336;21.182;2022-07-04T13:34:16;24.50;61.10
17066;DHT22;23120;52.336;21.182;2022-07-04T13:36:43;24.50;60.90
17066;DHT22;23120;52.336;21.182;2022-07-04T13:39:10;24.50;60.80
17066;DHT22;23120;52.336;21.182;2022-07-04T13:41:37;24.50;60.80
17066;DHT22;23120;52.336;21.182;2022-07-04T13:44:05;24.50;60.80
17066;DHT22;23120;52.336;21.182;2022-07-04T13:46:34;24.60;60.80
17066;DHT22;23120;52.336;21.182;2022-07-04T13:49:03;24.60;60.80
17066;DHT22;23120;52.336;21.182;2022-07-04T13:51:30;24.60;60.80
17066;DHT22;23120;52.336;21.182;2022-07-04T13:53:58;24.60;60.80
17066;DHT22;23120;52.336;21.182;2022-07-04T13:56:25;24.60;60.80
17066;DHT22;23120;52.336;21.182;2022-07-04T13:58:52;24.60;60.80
17066;DHT22;23120;52.336;21.182;2022-07-04T14:01:19;24.60;60.80
17066;DHT22;23120;52.336;21.182;2022-07-04T14:03:47;24.60;60.70
17066;DHT22;23120;52.336;21.182;2022-07-04T14:06:16;24.60;60.60
17066;DHT22;23120;52.336;21.182;2022-07-04T14:08:43;24.70;60.70
17066;DHT22;23120;52.336;21.182;2022-07-04T14:11:10;24.70;60.70
17066;DHT22;23120;52.336;21.182;2022-07-04T14:13:37;24.70;60.50
17066;DHT22;23120;52.336;21.182;2022-07-04T14:16:05;24.70;60.50
17066;DHT22;23120;52.336;21.182;2022-07-04T14:18:32;24.70;60.30
17066;DHT22;23120;52.336;21.182;2022-07-04T14:20:59;24.70;60.20
17066;DHT22;23120;52.336;21.182;2022-07-04T14:23:27;24.70;60.20
17066;DHT22;23120;52.336;21.182;2022-07-04T14:26:07;24.70;60.20
17066;DHT22;23120;52.336;21.182;2022-07-04T14:28:35;24.70;60.20
17066;DHT22;23120;52.336;21.182;2022-07-04T14:31:01;24.70;60.20
17066;DHT22;23120;52.336;21.182;2022-07-04T14:33:29;24.70;60.20
17066;DHT22;23120;52.336;21.182;2022-07-04T14:35:55;24.70;60.20
17066;DHT22;23120;52.336;21.182;2022-07-04T14:38:22;24.70;60.20
17066;DHT22;23120;52.336;21.182;2022-07-04T14:40:50;24.70;60.20
17066;DHT22;23120;52.336;21.182;2022-07-04T14:43:17;24.80;60.20
17066;DHT22;23120;52.336;21.182;2022-07-04T14:45:44;24.80;60.20
17066;DHT22;23120;52.336;21.182;2022-07-04T14:48:12;24.80;60.20
17066;DHT22;23120;52.336;21.182;2022-07-04T14:50:39;24.80;60.30
17066;DHT22;23120;52.336;21.182;2022-07-04T14:53:06;24.80;60.30
17066;DHT22;23120;52.336;21.182;2022-07-04T14:55:33;24.80;60.20
17066;DHT22;23120;52.336;21.182;2022-07-04T14:58:01;24.80;60.30
17066;DHT22;23120;52.336;21.182;2022-07-04T15:00:28;24.80;60.40
17066;DHT22;23120;52.336;21.182;2022-07-04T15:02:55;24.80;60.40
17066;DHT22;23120;52.336;21.182;2022-07-04T15:05:21;24.80;60.50
17066;DHT22;23120;52.336;21.182;2022-07-04T15:07:48;24.80;60.40
17066;DHT22;23120;52.336;21.182;2022-07-04T15:10:15;24.80;60.60
17066;DHT22;23120;52.336;21.182;2022-07-04T15:12:42;24.80;60.60
17066;DHT22;23120;52.336;21.182;2022-07-04T15:15:11;24.80;60.60
17066;DHT22;23120;52.336;21.182;2022-07-04T15:17:39;24.80;61.30
17066;DHT22;23120;52.336;21.182;2022-07-04T15:20:07;24.80;60.40
17066;DHT22;23120;52.336;21.182;2022-07-04T15:22:51;24.80;60.40
17066;DHT22;23120;52.336;21.182;2022-07-04T15:25:36;24.80;60.40
17066;DHT22;23120;52.336;21.182;2022-07-04T15:28:03;24.80;60.40
17066;DHT22;23120;52.336;21.182;2022-07-04T15:30:31;24.80;60.40